Ocontofalls, Wisconsin
Current Conditions -  °F | °C
As of 7:15 PM on Sunday 23 Nov 2014 (Local Time) from KOCQ Reporting Station
Overcast Overcast  
Wind Chill: 39°   Ceiling: 300
Heat Index: 43°   Visibility: 2.5mi
Dew Point: 43°   Wind: 7mph
Humidity: 100%   Direction: 160°SSE
Pressure: 29.36"   Gusts: NA
Location:  44.8816°N, 88.1735°W
Report Text: KOCQ 240115Z AUTO 16006KT 2 1/2SM OVC003 06/06 A2936 RMK AO1 P0001 T00600060
Loading
Personal Weather Stations






























Interactive Weather Map New forecast layout! Learn more

10-Day Weather Forecast

Advertisements
Track Severe Weather on mobile